KFYV/FYV METAR and TAF weather

Enter ICAO airport designator
Station Type Date Time Source
KFYV METAR 2022/01/18 05:53 UTC NOAA

KFYV 180553Z AUTO 00000KT 10SM CLR M01/M02 A3002 RMK AO2 SLP172 T10111022 10033 21022 400941078 55004


Station Type Date Time Source
KFYV Decoded METAR 2022/01/18 05:53 UTC NOAA

FAYETTEVILLE DRAKE FIELD, AR, United States (KFYV) 36-00N 94-10W 379M
Jan 18, 2022 - 12:53 AM EST / 2022.01.18 0553 UTC
Wind: Calm:0
Visibility: 10 mile(s):0
Sky conditions: clear
Temperature: 30.0 F (-1.1 C)
Dew Point: 28.0 F (-2.2 C)
Relative Humidity: 92%
Pressure (altimeter): 30.02 in. Hg (1016 hPa)
Pressure tendency: 0.01 inches (0.4 hPa) lower than three hours ago
ob: KFYV 180553Z AUTO 00000KT 10SM CLR M01/M02 A3002 RMK AO2 SLP172 T10111022 10033 21022 400941078 55004
cycle: 6

Station Type Date Time Source
KFYV TAF 2022/01/18 06:22 UTC NOAA

TAF KFYV 180520Z 1806/1906 18005KT P6SM FEW250
FM180900 18005KT P6SM FEW250 WS015/21040KT
FM181500 19012G22KT P6SM SCT250
FM190100 17009KT P6SM SCT040 SCT250

Example: see airport list